createdAt,value
2022-08-07T00:02:40.471Z,101137.91
2022-08-07T00:07:47.914Z,101136.47
2022-08-07T00:13:00.635Z,101130.13
2022-08-07T00:18:05.709Z,101129.13
2022-08-07T00:23:09.398Z,101122.53
2022-08-07T00:28:15.568Z,101115.03
2022-08-07T00:33:19.176Z,101115.13
2022-08-07T00:38:31.302Z,101117.38
2022-08-07T00:43:59.373Z,101121.44
2022-08-07T00:49:02.063Z,101099.53
2022-08-07T00:54:06.214Z,101107.56
2022-08-07T00:59:11.504Z,101109.44
2022-08-07T01:04:24.538Z,101106.28
2022-08-07T01:10:03.971Z,101107.13
2022-08-07T01:14:57.098Z,101098.63
2022-08-07T01:20:09.027Z,101104.25
2022-08-07T01:25:54.642Z,101095.63
2022-08-07T01:30:40.880Z,101094.75
2022-08-07T01:35:54.151Z,101073.91
2022-08-07T01:41:12.173Z,101081.78
2022-08-07T01:46:31.256Z,101068.97
2022-08-07T01:52:03.379Z,101076.00
2022-08-07T01:57:08.287Z,101068.88
2022-08-07T02:02:32.906Z,101062.72
2022-08-07T02:07:50.512Z,101074.19
2022-08-07T02:13:00.623Z,101080.25
2022-08-07T02:18:06.633Z,101076.81
2022-08-07T02:23:11.709Z,101079.00
2022-08-07T02:28:25.418Z,101087.34
2022-08-07T02:33:32.900Z,101089.88
2022-08-07T02:38:57.801Z,101097.38
2022-08-07T02:44:05.166Z,101095.53
2022-08-07T02:49:08.844Z,101092.50
2022-08-07T02:54:35.678Z,101098.75
2022-08-07T02:59:43.321Z,101096.13
2022-08-07T03:05:05.122Z,101099.75
2022-08-07T03:10:12.071Z,101095.97
2022-08-07T03:15:47.452Z,101091.06
2022-08-07T03:20:45.144Z,101107.25
2022-08-07T03:25:58.102Z,101097.59
2022-08-07T03:31:07.056Z,101120.47
2022-08-07T03:36:15.019Z,101118.44
2022-08-07T03:41:19.845Z,101112.69
2022-08-07T03:47:12.977Z,101117.06
2022-08-07T03:52:26.214Z,101123.84
2022-08-07T03:58:32.891Z,101117.84
2022-08-07T04:02:57.765Z,101121.09
2022-08-07T04:08:01.684Z,101121.50
2022-08-07T04:13:05.948Z,101131.31
2022-08-07T04:18:57.906Z,101138.97
2022-08-07T04:23:43.931Z,101139.19
2022-08-07T04:29:01.491Z,101142.84
2022-08-07T04:34:16.490Z,101151.19
2022-08-07T04:39:25.853Z,101152.84
2022-08-07T04:44:29.960Z,101169.78
2022-08-07T04:49:58.043Z,101172.50
2022-08-07T04:55:34.972Z,101175.72
2022-08-07T05:00:48.342Z,101189.34
2022-08-07T05:06:19.793Z,101187.38
2022-08-07T05:11:57.476Z,101195.66
2022-08-07T05:17:01.442Z,101204.09
2022-08-07T05:22:13.908Z,101203.69
2022-08-07T05:28:16.662Z,101200.28
2022-08-07T05:32:59.573Z,101199.16
2022-08-07T05:38:08.614Z,101190.00
2022-08-07T05:43:13.473Z,101199.19
2022-08-07T05:48:20.760Z,101195.41
2022-08-07T05:54:12.475Z,101195.88
2022-08-07T05:58:56.514Z,101193.47
2022-08-07T06:04:05.152Z,101195.47
2022-08-07T06:09:10.973Z,101189.75
2022-08-07T06:14:21.375Z,101189.00
2022-08-07T06:19:52.253Z,101192.06
2022-08-07T06:25:01.141Z,101192.41
2022-08-07T06:30:05.902Z,101185.84
2022-08-07T06:35:30.651Z,101189.53
2022-08-07T06:40:54.950Z,101186.09
2022-08-07T06:46:00.985Z,101186.56
2022-08-07T06:51:09.552Z,101185.31
2022-08-07T06:56:17.522Z,101181.94
2022-08-07T07:01:22.016Z,101185.28
2022-08-07T07:06:27.445Z,101185.66
2022-08-07T07:12:08.162Z,101180.28
2022-08-07T07:17:00.608Z,101185.19
2022-08-07T07:22:33.789Z,101205.63
2022-08-07T07:27:35.617Z,101210.88
2022-08-07T07:33:01.159Z,101216.09
2022-08-07T07:38:07.814Z,101215.19
2022-08-07T07:43:27.718Z,101217.63
2022-08-07T07:48:45.520Z,101222.47
2022-08-07T07:53:52.889Z,101211.81
2022-08-07T07:59:01.390Z,101220.09
2022-08-07T08:04:10.874Z,101217.97
2022-08-07T08:09:18.004Z,101204.69
2022-08-07T08:14:24.661Z,101210.09
2022-08-07T08:20:18.465Z,101199.47
2022-08-07T08:25:04.692Z,101210.16
2022-08-07T08:30:26.547Z,101213.44
2022-08-07T08:35:39.027Z,101211.69
2022-08-07T08:40:54.509Z,101216.03
2022-08-07T08:46:10.564Z,101207.81
2022-08-07T08:51:26.223Z,101210.25
2022-08-07T08:56:48.342Z,101210.88
2022-08-07T09:02:01.646Z,101219.81
2022-08-07T09:07:12.537Z,101215.56
2022-08-07T09:12:38.657Z,101216.47
2022-08-07T09:17:59.240Z,101214.28
2022-08-07T09:24:33.253Z,101217.13
2022-08-07T09:30:06.063Z,101222.81
2022-08-07T09:34:21.382Z,101215.91
2022-08-07T09:39:54.626Z,101216.59
2022-08-07T09:47:23.901Z,101216.53
2022-08-07T09:50:51.550Z,101216.97
2022-08-07T09:56:37.624Z,101205.38
2022-08-07T10:02:01.718Z,101221.59
2022-08-07T10:07:25.989Z,101225.88
2022-08-07T10:13:06.092Z,101222.31
2022-08-07T10:18:35.385Z,101225.75
2022-08-07T10:24:05.546Z,101225.06
2022-08-07T10:29:30.323Z,101221.59
2022-08-07T10:34:47.946Z,101216.53
2022-08-07T10:40:06.095Z,101223.28
2022-08-07T10:45:45.385Z,101226.97
2022-08-07T10:50:55.091Z,101226.69
2022-08-07T10:56:11.118Z,101234.00
2022-08-07T11:01:51.951Z,101235.81
2022-08-07T11:07:14.922Z,101234.56
2022-08-07T11:12:35.303Z,101238.94
2022-08-07T11:17:47.333Z,101243.38
2022-08-07T11:23:02.336Z,101252.88
2022-08-07T11:28:15.513Z,101249.72
2022-08-07T11:33:59.909Z,101245.66
2022-08-07T11:39:06.923Z,101243.69
2022-08-07T11:44:21.241Z,101257.19
2022-08-07T11:50:25.510Z,101260.16
2022-08-07T11:56:09.209Z,101257.09
2022-08-07T12:01:02.279Z,101254.53
2022-08-07T12:06:37.739Z,101260.66
2022-08-07T12:12:09.028Z,101253.25
2022-08-07T12:17:19.939Z,101254.03
2022-08-07T12:22:47.191Z,101258.09
2022-08-07T12:28:09.478Z,101255.41
2022-08-07T12:33:28.293Z,101259.09
2022-08-07T12:38:42.492Z,101259.38
2022-08-07T12:44:04.085Z,101273.56
2022-08-07T12:49:25.518Z,101277.81
2022-08-07T12:54:55.018Z,101273.53
2022-08-07T13:00:03.050Z,101283.22
2022-08-07T13:06:03.158Z,101281.34
2022-08-07T13:11:03.754Z,101288.88
2022-08-07T13:16:15.808Z,101288.25
2022-08-07T13:21:37.291Z,101297.41
2022-08-07T13:26:56.999Z,101293.00
2022-08-07T13:32:31.095Z,101302.31
2022-08-07T13:37:42.932Z,101309.13
2022-08-07T13:43:02.393Z,101311.53
2022-08-07T13:48:10.325Z,101318.03
2022-08-07T13:53:23.765Z,101331.47
2022-08-07T13:58:31.459Z,101333.00
2022-08-07T14:04:06.699Z,101331.72
2022-08-07T14:09:04.545Z,101349.38
2022-08-07T14:14:13.443Z,101346.69
2022-08-07T14:20:39.921Z,101349.06
2022-08-07T14:24:51.994Z,101360.97
2022-08-07T14:30:10.186Z,101362.44
2022-08-07T14:35:43.147Z,101364.72
2022-08-07T14:40:49.494Z,101359.94
2022-08-07T14:45:56.163Z,101359.31
2022-08-07T14:51:01.829Z,101368.25
2022-08-07T14:56:13.125Z,101369.97
2022-08-07T15:01:21.727Z,101370.34
2022-08-07T15:06:28.382Z,101372.44
2022-08-07T15:11:48.859Z,101377.25
2022-08-07T15:17:00.698Z,101382.78
2022-08-07T15:22:10.133Z,101393.22
2022-08-07T15:27:30.005Z,101399.16
2022-08-07T15:54:25.841Z,101416.13
2022-08-07T15:59:39.100Z,101416.84
2022-08-07T16:04:44.298Z,101419.47
2022-08-07T16:09:52.675Z,101426.94
2022-08-07T16:15:07.518Z,101427.78
2022-08-07T16:20:34.175Z,101431.00
2022-08-07T16:25:48.867Z,101414.56
2022-08-07T16:31:10.544Z,101406.22
2022-08-07T16:36:31.366Z,101414.09
2022-08-07T16:41:54.333Z,101412.72
2022-08-07T16:47:40.249Z,101414.78
2022-08-07T16:54:01.913Z,101422.03
2022-08-07T16:59:10.524Z,101418.84
2022-08-07T17:04:29.557Z,101406.75
2022-08-07T17:10:05.965Z,101406.81
2022-08-07T17:15:20.290Z,101396.25
2022-08-07T17:20:32.838Z,101394.19
2022-08-07T17:25:52.440Z,101392.13
2022-08-07T17:31:16.366Z,101386.78
2022-08-07T17:36:29.241Z,101392.72
2022-08-07T17:42:04.955Z,101379.75
2022-08-07T17:47:16.810Z,101392.28
2022-08-07T17:52:41.529Z,101378.13
2022-08-07T17:57:58.375Z,101383.38
2022-08-07T18:03:18.086Z,101369.13
2022-08-07T18:08:31.158Z,101369.69
2022-08-07T18:13:45.659Z,101368.84
2022-08-07T18:21:04.223Z,101373.94
2022-08-07T18:24:34.014Z,101365.88
2022-08-07T18:30:07.660Z,101369.06
2022-08-07T18:35:22.188Z,101361.69
2022-08-07T18:40:43.979Z,101349.94
2022-08-07T18:46:24.637Z,101354.44
2022-08-07T18:52:25.689Z,101353.31
2022-08-07T18:57:29.252Z,101346.25
2022-08-07T19:02:43.152Z,101343.25
2022-08-07T19:07:58.737Z,101340.19
2022-08-07T19:13:11.598Z,101330.44
2022-08-07T19:18:34.981Z,101326.69
2022-08-07T19:23:58.960Z,101324.13
2022-08-07T19:30:55.625Z,101314.28
2022-08-07T19:34:32.484Z,101314.88
2022-08-07T19:39:57.493Z,101310.88
2022-08-07T19:45:13.321Z,101313.72
2022-08-07T19:50:44.001Z,101306.31
2022-08-07T19:55:57.684Z,101294.06
2022-08-07T20:01:04.199Z,101292.78
2022-08-07T20:06:28.529Z,101291.19
2022-08-07T20:12:22.733Z,101295.66
2022-08-07T20:17:04.843Z,101294.38
2022-08-07T20:22:12.044Z,101286.53
2022-08-07T20:27:42.984Z,101295.25
2022-08-07T20:32:45.488Z,101286.50
2022-08-07T20:37:59.025Z,101280.97
2022-08-07T20:43:14.489Z,101279.97
2022-08-07T20:48:29.894Z,101271.22
2022-08-07T20:54:03.984Z,101273.81
2022-08-07T20:59:02.601Z,101274.06
2022-08-07T21:04:21.832Z,101278.63
2022-08-07T21:09:51.507Z,101277.47
2022-08-07T21:14:59.050Z,101271.75
2022-08-07T21:20:11.111Z,101269.88
2022-08-07T21:25:30.771Z,101268.41
2022-08-07T21:30:55.410Z,101267.22
2022-08-07T21:36:12.073Z,101264.94
2022-08-07T21:41:51.965Z,101257.66
2022-08-07T21:47:12.311Z,101265.25
2022-08-07T21:52:33.587Z,101261.69
2022-08-07T21:58:03.103Z,101249.66
2022-08-07T22:03:17.226Z,101254.28
2022-08-07T22:08:43.829Z,101244.50
2022-08-07T22:13:55.174Z,101251.41
2022-08-07T22:19:07.486Z,101243.78
2022-08-07T22:24:18.243Z,101219.34
2022-08-07T22:29:34.070Z,101223.09
2022-08-07T22:34:54.951Z,101213.88
2022-08-07T22:40:09.872Z,101214.72
2022-08-07T22:46:40.990Z,101204.66
2022-08-07T22:51:07.669Z,101199.66
2022-08-07T22:56:15.715Z,101200.75
2022-08-07T23:01:49.921Z,101192.25
2022-08-07T23:07:40.112Z,101192.81
2022-08-07T23:12:55.056Z,101179.50
2022-08-07T23:18:10.044Z,101178.25
2022-08-07T23:24:04.203Z,101180.94
2022-08-07T23:29:17.125Z,101175.38
2022-08-07T23:34:54.231Z,101173.66
2022-08-07T23:40:11.837Z,101174.47
2022-08-07T23:45:33.035Z,101174.72
2022-08-07T23:50:58.882Z,101175.25
2022-08-07T23:56:14.196Z,101182.28
